createdAt,value
2022-11-23T00:00:34.195Z,0.00
2022-11-23T00:01:34.130Z,0.00
2022-11-23T00:02:34.087Z,0.00
2022-11-23T00:03:33.977Z,0.00
2022-11-23T00:04:33.930Z,0.00
2022-11-23T00:05:33.965Z,0.00
2022-11-23T00:06:33.784Z,0.00
2022-11-23T00:07:33.756Z,0.00
2022-11-23T00:08:33.630Z,0.00
2022-11-23T00:09:33.892Z,0.00
2022-11-23T00:10:33.548Z,0.00
2022-11-23T00:11:33.432Z,0.00
2022-11-23T00:12:33.341Z,0.00
2022-11-23T00:13:33.268Z,0.00
2022-11-23T00:14:33.202Z,0.00
2022-11-23T00:15:33.131Z,0.00
2022-11-23T00:16:33.135Z,0.00
2022-11-23T00:17:33.097Z,0.00
2022-11-23T00:18:32.926Z,0.00
2022-11-23T00:19:33.186Z,0.00
2022-11-23T00:20:32.789Z,0.00
2022-11-23T00:21:32.761Z,0.00
2022-11-23T00:22:32.667Z,0.00
2022-11-23T00:23:32.591Z,0.00
2022-11-23T00:24:32.538Z,0.00
2022-11-23T00:25:32.418Z,0.00
2022-11-23T00:26:32.353Z,0.00
2022-11-23T00:27:32.281Z,0.00
2022-11-23T00:28:32.215Z,0.00
2022-11-23T00:29:32.384Z,0.00
2022-11-23T00:30:32.133Z,0.00
2022-11-23T00:31:32.024Z,0.00
2022-11-23T00:32:31.929Z,0.00
2022-11-23T00:33:31.851Z,0.00
2022-11-23T00:34:31.785Z,0.00
2022-11-23T00:35:31.722Z,0.00
2022-11-23T00:36:31.646Z,0.00
2022-11-23T00:37:31.575Z,0.00
2022-11-23T00:38:31.611Z,0.00
2022-11-23T00:39:31.708Z,0.00
2022-11-23T00:40:31.428Z,0.00
2022-11-23T00:41:31.301Z,0.00
2022-11-23T00:42:36.555Z,0.00
2022-11-23T00:43:31.166Z,0.00
2022-11-23T00:44:31.089Z,0.00
2022-11-23T00:45:31.041Z,0.00
2022-11-23T00:46:30.988Z,0.00
2022-11-23T00:47:30.890Z,0.00
2022-11-23T00:48:30.805Z,0.00
2022-11-23T00:49:31.031Z,0.00
2022-11-23T00:50:30.650Z,0.00
2022-11-23T00:51:30.591Z,0.00
2022-11-23T00:52:30.511Z,0.00
2022-11-23T00:53:30.441Z,0.00
2022-11-23T00:54:30.365Z,0.00
2022-11-23T00:55:30.296Z,0.00
2022-11-23T00:56:30.233Z,0.00
2022-11-23T00:57:30.155Z,0.00
2022-11-23T00:58:30.093Z,0.00
2022-11-23T00:59:30.512Z,0.00
2022-11-23T01:00:29.961Z,0.00
2022-11-23T01:01:29.920Z,0.00
2022-11-23T01:02:29.839Z,0.00
2022-11-23T01:03:29.779Z,0.00
2022-11-23T01:04:29.672Z,0.00
2022-11-23T01:05:29.609Z,0.00
2022-11-23T01:06:29.517Z,0.00
2022-11-23T01:07:29.555Z,0.00
2022-11-23T01:08:29.428Z,0.00
2022-11-23T01:09:29.779Z,0.00
2022-11-23T01:10:29.240Z,0.00
2022-11-23T01:11:29.251Z,0.00
2022-11-23T01:12:29.120Z,0.00
2022-11-23T01:13:29.050Z,0.00
2022-11-23T01:14:29.281Z,0.00
2022-11-23T01:15:28.891Z,0.00
2022-11-23T01:16:28.872Z,0.00
2022-11-23T01:17:28.744Z,0.00
2022-11-23T01:18:28.735Z,0.00
2022-11-23T01:19:28.764Z,0.00
2022-11-23T01:20:28.590Z,0.00
2022-11-23T01:21:28.488Z,0.00
2022-11-23T01:22:28.396Z,0.00
2022-11-23T01:23:28.317Z,0.00
2022-11-23T01:24:28.263Z,0.00
2022-11-23T01:25:28.178Z,0.00
2022-11-23T01:26:28.148Z,0.00
2022-11-23T01:27:28.048Z,0.00
2022-11-23T01:28:27.997Z,0.00
2022-11-23T01:29:27.905Z,0.00
2022-11-23T01:30:27.974Z,0.00
2022-11-23T01:31:27.750Z,0.00
2022-11-23T01:32:27.754Z,0.00
2022-11-23T01:33:27.638Z,0.00
2022-11-23T01:34:27.545Z,0.00
2022-11-23T01:35:27.473Z,0.00
2022-11-23T01:36:27.452Z,0.00
2022-11-23T01:37:27.365Z,0.00
2022-11-23T01:38:27.270Z,0.00
2022-11-23T01:39:27.187Z,0.00
2022-11-23T01:40:27.255Z,0.00
2022-11-23T01:41:27.057Z,0.00
2022-11-23T01:42:27.000Z,0.00
2022-11-23T01:43:26.926Z,0.00
2022-11-23T01:44:26.848Z,0.00
2022-11-23T01:45:26.766Z,0.00
2022-11-23T01:46:26.730Z,0.00
2022-11-23T01:47:26.624Z,0.00
2022-11-23T01:48:26.577Z,0.00
2022-11-23T01:49:26.471Z,0.00
2022-11-23T01:50:26.481Z,0.00
2022-11-23T01:51:26.449Z,0.00
2022-11-23T01:52:26.273Z,0.00
2022-11-23T01:53:26.189Z,0.00
2022-11-23T01:54:26.123Z,0.00
2022-11-23T01:55:26.067Z,0.00
2022-11-23T01:56:26.022Z,0.00
2022-11-23T01:57:25.925Z,0.00
2022-11-23T01:58:25.848Z,0.00
2022-11-23T01:59:25.782Z,0.00
2022-11-23T02:00:25.702Z,0.00
2022-11-23T02:01:25.707Z,0.00
2022-11-23T02:02:25.577Z,0.00
2022-11-23T02:03:25.507Z,0.00
2022-11-23T02:04:25.419Z,0.00
2022-11-23T02:05:25.350Z,0.00
2022-11-23T02:06:25.298Z,0.00
2022-11-23T02:07:25.272Z,0.00
2022-11-23T02:08:25.149Z,0.00
2022-11-23T02:09:25.060Z,0.00
2022-11-23T02:10:25.004Z,0.00
2022-11-23T02:11:24.976Z,0.00
2022-11-23T02:12:24.859Z,0.00
2022-11-23T02:13:24.818Z,0.00
2022-11-23T02:14:24.746Z,0.00
2022-11-23T02:15:24.654Z,0.00
2022-11-23T02:16:24.592Z,0.00
2022-11-23T02:17:24.546Z,0.00
2022-11-23T02:18:24.446Z,0.00
2022-11-23T02:19:24.383Z,0.00
2022-11-23T02:20:24.322Z,0.00
2022-11-23T02:21:24.253Z,0.00
2022-11-23T02:22:24.185Z,0.00
2022-11-23T02:23:24.102Z,0.00
2022-11-23T02:24:24.031Z,0.00
2022-11-23T02:25:23.942Z,0.00
2022-11-23T02:26:23.919Z,0.00
2022-11-23T02:27:23.880Z,0.00
2022-11-23T02:28:23.756Z,0.00
2022-11-23T02:29:23.746Z,0.00
2022-11-23T02:30:23.642Z,0.00
2022-11-23T02:31:23.552Z,0.00
2022-11-23T02:32:23.443Z,0.00
2022-11-23T02:33:23.606Z,0.00
2022-11-23T02:34:23.378Z,0.00
2022-11-23T02:35:23.281Z,0.00
2022-11-23T02:36:23.175Z,0.00
2022-11-23T02:37:23.098Z,0.00
2022-11-23T02:38:23.030Z,0.00
2022-11-23T02:39:22.962Z,0.00
2022-11-23T02:40:22.932Z,0.00
2022-11-23T02:41:22.818Z,0.00
2022-11-23T02:42:22.784Z,0.00
2022-11-23T02:43:22.683Z,0.00
2022-11-23T02:44:22.615Z,0.00
2022-11-23T02:45:22.548Z,0.00
2022-11-23T02:46:22.566Z,0.00
2022-11-23T02:47:22.458Z,0.00
2022-11-23T02:48:22.337Z,0.00
2022-11-23T02:49:22.273Z,0.00
2022-11-23T02:50:22.194Z,0.00
2022-11-23T02:51:22.126Z,0.00
2022-11-23T02:52:22.041Z,0.00
2022-11-23T02:53:21.979Z,0.00
2022-11-23T02:54:21.922Z,0.00
2022-11-23T02:55:21.836Z,0.00
2022-11-23T02:56:21.775Z,0.00
2022-11-23T02:57:21.810Z,0.00
2022-11-23T02:58:21.710Z,0.00
2022-11-23T02:59:21.550Z,0.00
2022-11-23T03:00:21.559Z,0.00
2022-11-23T03:01:21.471Z,0.00
2022-11-23T03:02:21.344Z,0.00
2022-11-23T03:03:21.288Z,0.00
2022-11-23T03:04:27.405Z,0.00
2022-11-23T03:05:21.131Z,0.00
2022-11-23T03:06:21.114Z,0.00
2022-11-23T03:07:21.074Z,0.00
2022-11-23T03:08:20.937Z,0.00
2022-11-23T03:09:20.836Z,0.00
2022-11-23T03:10:20.780Z,0.00
2022-11-23T03:11:20.701Z,0.00
2022-11-23T03:12:20.625Z,0.00
2022-11-23T03:13:20.559Z,0.00
2022-11-23T03:14:20.493Z,0.00
2022-11-23T03:15:20.459Z,0.00
2022-11-23T03:16:20.353Z,0.00
2022-11-23T03:17:20.289Z,0.00
2022-11-23T03:18:20.218Z,0.00
2022-11-23T03:19:20.130Z,0.00
2022-11-23T03:20:20.075Z,0.00
2022-11-23T03:21:19.997Z,0.00
2022-11-23T03:22:19.924Z,0.00
2022-11-23T03:23:19.849Z,0.00
2022-11-23T03:24:19.801Z,0.00
2022-11-23T03:25:19.734Z,0.00
2022-11-23T03:26:19.646Z,0.00
2022-11-23T03:27:19.585Z,0.00
2022-11-23T03:28:19.554Z,0.00
2022-11-23T03:29:19.436Z,0.00
2022-11-23T03:30:19.499Z,0.00
2022-11-23T03:31:19.306Z,0.00
2022-11-23T03:32:19.233Z,0.00
2022-11-23T03:33:19.154Z,0.00
2022-11-23T03:34:19.086Z,0.00
2022-11-23T03:35:19.062Z,0.00
2022-11-23T03:36:18.944Z,0.00
2022-11-23T03:37:18.872Z,0.00
2022-11-23T03:38:18.803Z,0.00
2022-11-23T03:39:18.721Z,0.00
2022-11-23T03:40:18.651Z,0.00
2022-11-23T03:41:18.600Z,0.00
2022-11-23T03:42:18.524Z,0.00
2022-11-23T03:43:18.479Z,0.00
2022-11-23T03:44:18.372Z,0.00
2022-11-23T03:45:18.338Z,0.00
2022-11-23T03:46:18.244Z,0.00
2022-11-23T03:47:18.157Z,0.00
2022-11-23T03:48:18.084Z,0.00
2022-11-23T03:49:18.035Z,0.00
2022-11-23T03:50:17.950Z,0.00
2022-11-23T03:51:17.907Z,0.00
2022-11-23T03:52:17.815Z,0.00
2022-11-23T03:53:17.796Z,0.00
2022-11-23T03:54:17.664Z,0.00
2022-11-23T03:55:17.594Z,0.00
2022-11-23T03:56:17.531Z,0.00
2022-11-23T03:57:17.466Z,0.00
2022-11-23T03:58:17.380Z,0.00
2022-11-23T03:59:17.308Z,0.00
2022-11-23T04:00:17.234Z,0.00
2022-11-23T04:01:17.176Z,0.00
2022-11-23T04:02:17.125Z,0.00
2022-11-23T04:03:17.069Z,0.00
2022-11-23T04:04:16.958Z,0.00
2022-11-23T04:05:16.881Z,0.00
2022-11-23T04:06:16.826Z,0.00
2022-11-23T04:07:16.835Z,0.00
2022-11-23T04:08:16.669Z,0.00
2022-11-23T04:09:16.595Z,0.00
2022-11-23T04:10:16.561Z,0.00
2022-11-23T04:11:16.471Z,0.00
2022-11-23T04:12:16.383Z,0.00
2022-11-23T04:13:16.319Z,0.00
2022-11-23T04:14:16.242Z,0.00
2022-11-23T04:15:16.216Z,0.00
2022-11-23T04:16:16.123Z,0.00
2022-11-23T04:17:16.102Z,0.00
2022-11-23T04:18:15.982Z,0.00
2022-11-23T04:19:15.941Z,0.00
2022-11-23T04:20:15.834Z,0.00
2022-11-23T04:21:15.782Z,0.00
2022-11-23T04:22:15.678Z,0.00
2022-11-23T04:23:15.617Z,0.00
2022-11-23T04:24:15.576Z,0.00
2022-11-23T04:25:15.499Z,0.00
2022-11-23T04:26:15.398Z,0.00
2022-11-23T04:27:15.408Z,0.00
2022-11-23T04:28:15.280Z,0.00
2022-11-23T04:29:15.189Z,0.00
2022-11-23T04:30:15.170Z,0.00
2022-11-23T04:31:15.091Z,0.00
2022-11-23T04:32:14.984Z,0.00
2022-11-23T04:33:14.921Z,0.00
2022-11-23T04:34:14.827Z,0.00
2022-11-23T04:35:14.840Z,0.00
2022-11-23T04:36:14.691Z,0.00
2022-11-23T04:37:14.630Z,0.00
2022-11-23T04:38:14.543Z,0.00
2022-11-23T04:39:14.488Z,0.00
2022-11-23T04:40:14.430Z,0.00
2022-11-23T04:41:14.338Z,0.00
2022-11-23T04:42:14.265Z,0.00
2022-11-23T04:43:14.213Z,0.00
2022-11-23T04:44:14.176Z,0.00
2022-11-23T04:45:14.055Z,0.00
2022-11-23T04:46:13.981Z,0.00
2022-11-23T04:47:13.931Z,0.00
2022-11-23T04:48:13.829Z,0.00
2022-11-23T04:49:13.799Z,0.00
2022-11-23T04:50:13.736Z,0.00
2022-11-23T04:51:13.632Z,0.00
2022-11-23T04:52:13.556Z,0.00
2022-11-23T04:53:13.481Z,0.00
2022-11-23T04:54:13.413Z,0.00
2022-11-23T04:55:13.384Z,0.00
2022-11-23T04:56:13.310Z,0.00
2022-11-23T04:57:13.205Z,0.00
2022-11-23T04:58:13.136Z,0.00
2022-11-23T04:59:13.051Z,0.00
2022-11-23T05:00:13.009Z,0.00
2022-11-23T05:01:13.002Z,0.00
2022-11-23T05:02:12.848Z,0.00
2022-11-23T05:03:12.780Z,0.00
2022-11-23T05:04:17.561Z,0.00
2022-11-23T05:05:12.635Z,0.00
2022-11-23T05:06:12.644Z,0.00
2022-11-23T05:07:12.532Z,0.00
2022-11-23T05:08:12.486Z,0.00
2022-11-23T05:09:12.365Z,0.00
2022-11-23T05:10:12.270Z,0.00
2022-11-23T05:11:12.213Z,0.00
2022-11-23T05:12:12.230Z,0.00
2022-11-23T05:13:12.106Z,0.00
2022-11-23T05:14:11.989Z,0.00
2022-11-23T05:15:11.952Z,0.00
2022-11-23T05:16:11.850Z,0.00
2022-11-23T05:17:11.778Z,0.00
2022-11-23T05:18:11.768Z,0.00
2022-11-23T05:19:11.638Z,0.00
2022-11-23T05:20:11.560Z,0.00
2022-11-23T05:21:11.504Z,0.00
2022-11-23T05:22:11.445Z,0.00
2022-11-23T05:23:11.488Z,0.00
2022-11-23T05:24:11.287Z,0.00
2022-11-23T05:25:11.232Z,0.00
2022-11-23T05:26:11.139Z,0.00
2022-11-23T05:27:11.088Z,0.00
2022-11-23T05:28:37.966Z,0.00
2022-11-23T05:29:10.931Z,0.00
2022-11-23T05:30:10.860Z,0.00
2022-11-23T05:31:10.790Z,0.00
2022-11-23T05:32:10.716Z,0.00
2022-11-23T05:33:10.681Z,0.00
2022-11-23T05:34:10.587Z,0.00
2022-11-23T05:35:10.503Z,0.00
2022-11-23T05:36:10.446Z,0.00
2022-11-23T05:37:10.384Z,0.00
2022-11-23T05:38:10.307Z,0.00
2022-11-23T05:39:10.274Z,0.00
2022-11-23T05:40:10.147Z,0.00
2022-11-23T05:41:10.105Z,0.00
2022-11-23T05:42:10.035Z,0.00
2022-11-23T05:43:09.951Z,0.00
2022-11-23T05:44:09.888Z,0.00
2022-11-23T05:45:11.650Z,0.00
2022-11-23T05:46:09.818Z,0.00
2022-11-23T05:47:09.656Z,0.00
2022-11-23T05:48:09.591Z,0.00
2022-11-23T05:49:09.602Z,0.00
2022-11-23T05:50:09.479Z,0.00
2022-11-23T05:51:09.387Z,0.00
2022-11-23T05:52:09.335Z,0.00
2022-11-23T05:53:09.299Z,0.00
2022-11-23T05:54:09.170Z,0.00
2022-11-23T05:55:09.100Z,0.00
2022-11-23T05:56:09.036Z,0.00
2022-11-23T05:57:08.956Z,0.00
2022-11-23T05:58:08.897Z,0.00
2022-11-23T05:59:08.937Z,0.00
2022-11-23T06:00:08.748Z,0.00
2022-11-23T06:01:08.682Z,0.00
2022-11-23T06:02:08.604Z,0.00
2022-11-23T06:03:08.570Z,0.00
2022-11-23T06:04:08.488Z,0.00
2022-11-23T06:05:08.392Z,0.00
2022-11-23T06:06:08.379Z,0.00
2022-11-23T06:07:08.328Z,0.00
2022-11-23T06:08:08.187Z,0.00
2022-11-23T06:09:08.194Z,0.00
2022-11-23T06:10:08.087Z,0.00
2022-11-23T06:11:08.013Z,0.00
2022-11-23T06:12:07.892Z,0.00
2022-11-23T06:13:07.835Z,0.00
2022-11-23T06:14:11.385Z,0.00
2022-11-23T06:15:07.674Z,0.00
2022-11-23T06:16:07.656Z,0.00
2022-11-23T06:17:07.546Z,0.00
2022-11-23T06:18:07.517Z,0.00
2022-11-23T06:19:07.452Z,0.00
2022-11-23T06:20:07.317Z,0.00
2022-11-23T06:21:07.273Z,0.00
2022-11-23T06:22:07.188Z,0.00
2022-11-23T06:23:07.151Z,0.00
2022-11-23T06:24:07.035Z,0.00
2022-11-23T06:25:06.966Z,0.00
2022-11-23T06:26:06.912Z,0.00
2022-11-23T06:27:06.827Z,0.00
2022-11-23T06:28:06.761Z,0.00
2022-11-23T06:29:06.690Z,0.00
2022-11-23T06:30:06.619Z,0.00
2022-11-23T06:31:06.557Z,0.00
2022-11-23T06:32:06.523Z,0.00
2022-11-23T06:33:06.398Z,0.00
2022-11-23T06:34:06.324Z,0.00
2022-11-23T06:35:06.282Z,0.00
2022-11-23T06:36:06.201Z,0.00
2022-11-23T06:37:06.137Z,0.00
2022-11-23T06:38:06.050Z,5.63
2022-11-23T06:39:05.978Z,5.63
2022-11-23T06:40:05.905Z,5.63
2022-11-23T06:41:05.832Z,5.63
2022-11-23T06:42:36.654Z,5.63
2022-11-23T06:43:05.697Z,5.63
2022-11-23T06:44:05.654Z,5.63
2022-11-23T06:45:05.594Z,5.63
2022-11-23T06:46:05.515Z,5.63
2022-11-23T06:47:05.447Z,5.63
2022-11-23T06:48:05.339Z,5.63
2022-11-23T06:49:05.274Z,11.25
2022-11-23T06:50:05.209Z,11.25
2022-11-23T06:51:05.157Z,11.25
2022-11-23T06:52:05.054Z,11.25
2022-11-23T06:53:05.043Z,11.25
2022-11-23T06:54:04.912Z,11.25
2022-11-23T06:55:04.872Z,11.25
2022-11-23T06:56:04.787Z,16.88
2022-11-23T06:57:04.712Z,16.88
2022-11-23T06:58:04.669Z,16.88
2022-11-23T06:59:04.576Z,16.88
2022-11-23T07:00:04.531Z,16.88
2022-11-23T07:01:04.527Z,16.88
2022-11-23T07:02:04.344Z,22.50
2022-11-23T07:03:04.275Z,22.50
2022-11-23T07:04:04.208Z,22.50
2022-11-23T07:05:04.208Z,22.50
2022-11-23T07:06:04.063Z,22.50
2022-11-23T07:07:04.225Z,22.50
2022-11-23T07:08:03.933Z,22.50
2022-11-23T07:09:03.851Z,28.13
2022-11-23T07:10:07.050Z,28.13
2022-11-23T07:11:03.776Z,28.13
2022-11-23T07:12:03.642Z,28.13
2022-11-23T07:13:03.597Z,28.13
2022-11-23T07:14:03.493Z,28.13
2022-11-23T07:15:03.483Z,33.75
2022-11-23T07:16:03.353Z,33.75
2022-11-23T07:17:03.291Z,33.75
2022-11-23T07:18:03.212Z,33.75
2022-11-23T07:19:03.141Z,39.38
2022-11-23T07:20:03.068Z,39.38
2022-11-23T07:21:03.012Z,39.38
2022-11-23T07:22:02.982Z,39.38
2022-11-23T07:23:02.904Z,39.38
2022-11-23T07:24:02.791Z,45.00
2022-11-23T07:25:02.746Z,45.00
2022-11-23T07:26:02.646Z,50.63
2022-11-23T07:27:02.611Z,61.88
2022-11-23T07:28:02.525Z,67.50
2022-11-23T07:29:02.582Z,73.13
2022-11-23T07:30:02.402Z,67.50
2022-11-23T07:31:02.294Z,78.75
2022-11-23T07:32:02.236Z,84.38
2022-11-23T07:33:02.238Z,84.38
2022-11-23T07:34:02.088Z,78.75
2022-11-23T07:35:02.052Z,78.75
2022-11-23T07:36:01.979Z,95.63
2022-11-23T07:37:02.394Z,118.13
2022-11-23T07:38:01.810Z,140.63
2022-11-23T07:39:01.743Z,163.13
2022-11-23T07:40:02.065Z,174.38
2022-11-23T07:41:01.592Z,191.25
2022-11-23T07:43:01.452Z,264.38
2022-11-23T07:44:01.402Z,303.75
2022-11-23T07:45:01.311Z,315.00
2022-11-23T07:46:01.232Z,258.75
2022-11-23T07:47:01.189Z,337.50
2022-11-23T07:48:01.196Z,382.50
2022-11-23T07:49:01.026Z,416.25
2022-11-23T07:50:01.018Z,309.38
2022-11-23T07:51:00.914Z,202.50
2022-11-23T07:52:00.813Z,185.63
2022-11-23T07:53:00.748Z,258.75
2022-11-23T07:54:00.684Z,163.13
2022-11-23T07:55:00.635Z,281.25
2022-11-23T07:56:00.548Z,444.38
2022-11-23T07:57:00.480Z,455.63
2022-11-23T07:58:00.416Z,438.75
2022-11-23T07:59:00.338Z,461.25
2022-11-23T08:00:00.295Z,450.00
2022-11-23T08:01:00.197Z,365.63
2022-11-23T08:02:00.189Z,360.00
2022-11-23T08:04:00.006Z,495.00
2022-11-23T08:04:59.973Z,483.75
2022-11-23T08:05:59.875Z,495.00
2022-11-23T08:06:59.809Z,506.25
2022-11-23T08:07:59.737Z,472.50
2022-11-23T08:08:59.695Z,376.88
2022-11-23T08:09:59.651Z,354.38
2022-11-23T08:10:59.578Z,213.75
2022-11-23T08:11:59.515Z,241.88
2022-11-23T08:12:59.426Z,196.88
2022-11-23T08:13:59.383Z,174.38
2022-11-23T08:14:59.267Z,163.13
2022-11-23T08:15:59.221Z,151.88
2022-11-23T08:16:59.156Z,135.00
2022-11-23T08:17:59.075Z,123.75
2022-11-23T08:18:59.000Z,106.88
2022-11-23T08:19:58.952Z,95.63
2022-11-23T08:20:58.875Z,90.00
2022-11-23T08:21:58.811Z,90.00
2022-11-23T08:22:58.771Z,90.00
2022-11-23T08:23:58.666Z,84.38
2022-11-23T08:24:58.611Z,84.38
2022-11-23T08:25:58.558Z,90.00
2022-11-23T08:26:58.492Z,90.00
2022-11-23T08:27:58.409Z,84.38
2022-11-23T08:28:58.417Z,84.38
2022-11-23T08:29:58.317Z,84.38
2022-11-23T08:30:58.249Z,84.38
2022-11-23T08:31:58.129Z,84.38
2022-11-23T08:32:58.074Z,84.38
2022-11-23T08:34:03.091Z,84.38
2022-11-23T08:34:57.940Z,84.38
2022-11-23T08:35:57.999Z,84.38
2022-11-23T08:36:57.908Z,90.00
2022-11-23T08:37:57.745Z,90.00
2022-11-23T08:38:57.709Z,95.63
2022-11-23T08:39:57.612Z,101.25
2022-11-23T08:40:57.529Z,106.88
2022-11-23T08:41:57.458Z,106.88
2022-11-23T08:42:57.482Z,106.88
2022-11-23T08:43:57.356Z,106.88
2022-11-23T08:44:57.240Z,112.50
2022-11-23T08:46:03.262Z,118.13
2022-11-23T08:46:57.226Z,123.75
2022-11-23T08:47:57.050Z,123.75
2022-11-23T08:48:56.973Z,123.75
2022-11-23T08:49:56.962Z,123.75
2022-11-23T08:50:56.847Z,123.75
2022-11-23T08:51:56.803Z,123.75
2022-11-23T08:52:56.694Z,123.75
2022-11-23T08:53:56.618Z,135.00
2022-11-23T08:54:56.601Z,146.25
2022-11-23T08:55:56.483Z,163.13
2022-11-23T08:56:56.471Z,191.25
2022-11-23T08:57:56.374Z,236.25
2022-11-23T08:58:56.300Z,264.38
2022-11-23T08:59:56.209Z,236.25
2022-11-23T09:00:56.165Z,219.38
2022-11-23T09:01:56.105Z,213.75
2022-11-23T09:02:56.019Z,180.00
2022-11-23T09:03:55.933Z,168.75
2022-11-23T09:04:55.869Z,163.13
2022-11-23T09:05:55.801Z,163.13
2022-11-23T09:06:55.746Z,163.13
2022-11-23T09:07:55.662Z,163.13
2022-11-23T09:08:55.595Z,174.38
2022-11-23T09:09:55.538Z,191.25
2022-11-23T09:10:55.505Z,208.13
2022-11-23T09:11:55.389Z,236.25
2022-11-23T09:12:55.364Z,247.50
2022-11-23T09:13:55.254Z,286.88
2022-11-23T09:14:55.177Z,360.00
2022-11-23T09:15:55.115Z,585.00
2022-11-23T09:16:55.040Z,821.25
2022-11-23T09:17:55.005Z,810.00
2022-11-23T09:18:54.935Z,736.88
2022-11-23T09:19:54.837Z,714.38
2022-11-23T09:20:54.783Z,652.50
2022-11-23T09:21:54.714Z,663.75
2022-11-23T09:22:54.641Z,652.50
2022-11-23T09:23:54.584Z,646.88
2022-11-23T09:24:54.544Z,630.00
2022-11-23T09:25:54.448Z,613.13
2022-11-23T09:26:54.466Z,596.25
2022-11-23T09:27:54.327Z,579.38
2022-11-23T09:28:54.268Z,551.25
2022-11-23T09:29:54.186Z,545.63
2022-11-23T09:30:54.154Z,528.75
2022-11-23T09:31:54.047Z,523.13
2022-11-23T09:32:54.257Z,528.75
2022-11-23T09:33:53.921Z,511.88
2022-11-23T09:34:53.860Z,511.88
2022-11-23T09:35:53.792Z,506.25
2022-11-23T09:36:53.720Z,506.25
2022-11-23T09:37:53.686Z,489.38
2022-11-23T09:38:57.612Z,495.00
2022-11-23T09:39:53.524Z,461.25
2022-11-23T09:40:57.604Z,450.00
2022-11-23T09:41:53.411Z,483.75
2022-11-23T09:42:53.372Z,298.13
2022-11-23T09:43:53.292Z,286.88
2022-11-23T09:44:53.203Z,292.50
2022-11-23T09:45:53.224Z,360.00
2022-11-23T09:46:53.278Z,478.13
2022-11-23T09:47:53.039Z,466.88
2022-11-23T09:48:52.957Z,472.50
2022-11-23T09:49:52.993Z,461.25
2022-11-23T09:50:52.820Z,478.13
2022-11-23T09:51:52.779Z,472.50
2022-11-23T09:52:52.693Z,472.50
2022-11-23T09:53:52.628Z,472.50
2022-11-23T09:54:52.568Z,472.50
2022-11-23T09:55:52.519Z,478.13
2022-11-23T09:56:55.884Z,478.13
2022-11-23T09:57:52.378Z,483.75
2022-11-23T09:58:52.314Z,506.25
2022-11-23T09:59:52.257Z,585.00
2022-11-23T10:00:52.207Z,725.63
2022-11-23T10:01:52.213Z,776.25
2022-11-23T10:02:52.064Z,821.25
2022-11-23T10:03:52.008Z,922.50
2022-11-23T10:04:51.938Z,973.13
2022-11-23T10:05:51.901Z,1035.00
2022-11-23T10:06:51.821Z,984.38
2022-11-23T10:07:51.759Z,916.88
2022-11-23T10:08:51.709Z,945.00
2022-11-23T10:09:51.624Z,1029.38
2022-11-23T10:10:51.575Z,973.13
2022-11-23T10:11:51.503Z,905.63
2022-11-23T10:12:51.453Z,883.13
2022-11-23T10:13:51.391Z,916.88
2022-11-23T10:14:51.326Z,984.38
2022-11-23T10:15:51.311Z,1006.88
2022-11-23T10:16:51.216Z,1018.13
2022-11-23T10:17:51.139Z,956.25
2022-11-23T10:18:51.114Z,922.50
2022-11-23T10:19:51.007Z,995.63
2022-11-23T10:20:50.949Z,1074.38
2022-11-23T10:21:50.872Z,1029.38
2022-11-23T10:22:50.825Z,990.00
2022-11-23T10:23:50.763Z,1018.13
2022-11-23T10:24:50.766Z,1051.88
2022-11-23T10:25:50.659Z,1130.63
2022-11-23T10:26:50.583Z,1102.50
2022-11-23T10:27:50.521Z,1125.00
2022-11-23T10:28:50.525Z,1147.50
2022-11-23T10:29:50.419Z,1254.38
2022-11-23T10:30:50.316Z,1260.00
2022-11-23T10:31:55.484Z,1366.88
2022-11-23T10:32:50.230Z,1603.13
2022-11-23T10:33:50.201Z,1721.25
2022-11-23T10:34:50.117Z,1760.63
2022-11-23T10:35:50.021Z,1901.25
2022-11-23T10:36:49.970Z,1518.75
2022-11-23T10:37:53.472Z,905.63
2022-11-23T10:38:49.928Z,1018.13
2022-11-23T10:39:50.042Z,736.88
2022-11-23T10:40:49.824Z,905.63
2022-11-23T10:41:49.656Z,815.63
2022-11-23T10:42:49.577Z,1243.13
2022-11-23T10:43:49.536Z,793.13
2022-11-23T10:44:49.456Z,596.25
2022-11-23T10:45:49.406Z,652.50
2022-11-23T10:46:49.336Z,832.50
2022-11-23T10:47:49.287Z,433.13
2022-11-23T10:48:49.223Z,466.88
2022-11-23T10:49:49.170Z,506.25
2022-11-23T10:50:49.103Z,416.25
2022-11-23T10:51:49.028Z,410.63
2022-11-23T10:52:48.999Z,523.13
2022-11-23T10:53:48.913Z,348.75
2022-11-23T10:54:48.955Z,354.38
2022-11-23T10:55:48.763Z,326.25
2022-11-23T10:56:48.706Z,348.75
2022-11-23T10:57:48.662Z,309.38
2022-11-23T10:58:48.577Z,258.75
2022-11-23T10:59:48.512Z,264.38
2022-11-23T11:00:48.567Z,331.88
2022-11-23T11:01:48.484Z,303.75
2022-11-23T11:02:48.415Z,275.63
2022-11-23T11:03:48.259Z,270.00
2022-11-23T11:04:48.209Z,264.38
2022-11-23T11:06:08.255Z,253.13
2022-11-23T11:06:48.077Z,253.13
2022-11-23T11:07:48.097Z,241.88
2022-11-23T11:08:47.941Z,236.25
2022-11-23T11:09:47.871Z,230.63
2022-11-23T11:10:47.814Z,236.25
2022-11-23T11:11:47.786Z,241.88
2022-11-23T11:12:47.669Z,247.50
2022-11-23T11:13:47.614Z,253.13
2022-11-23T11:14:48.031Z,258.75
2022-11-23T11:15:47.939Z,258.75
2022-11-23T11:16:47.798Z,258.75
2022-11-23T11:17:47.368Z,264.38
2022-11-23T11:18:47.282Z,264.38
2022-11-23T11:19:47.222Z,258.75
2022-11-23T11:20:47.160Z,253.13
2022-11-23T11:21:47.149Z,247.50
2022-11-23T11:22:48.013Z,241.88
2022-11-23T11:23:47.026Z,241.88
2022-11-23T11:24:46.898Z,236.25
2022-11-23T11:25:46.861Z,236.25
2022-11-23T11:26:46.789Z,230.63
2022-11-23T11:27:46.694Z,230.63
2022-11-23T11:28:46.645Z,225.00
2022-11-23T11:29:46.575Z,219.38
2022-11-23T11:30:46.517Z,219.38
2022-11-23T11:31:46.438Z,219.38
2022-11-23T11:32:46.368Z,219.38
2022-11-23T11:33:46.320Z,213.75
2022-11-23T11:34:46.234Z,213.75
2022-11-23T11:35:46.196Z,219.38
2022-11-23T11:36:46.148Z,219.38
2022-11-23T11:37:46.040Z,225.00
2022-11-23T11:38:56.300Z,219.38
2022-11-23T11:39:45.909Z,219.38
2022-11-23T11:40:45.854Z,213.75
2022-11-23T11:41:45.773Z,213.75
2022-11-23T11:42:45.718Z,213.75
2022-11-23T11:43:45.655Z,213.75
2022-11-23T11:44:45.587Z,219.38
2022-11-23T11:46:13.133Z,219.38
2022-11-23T11:46:45.446Z,213.75
2022-11-23T11:47:45.388Z,213.75
2022-11-23T11:48:45.385Z,202.50
2022-11-23T11:49:45.251Z,196.88
2022-11-23T11:50:45.184Z,191.25
2022-11-23T11:51:45.136Z,191.25
2022-11-23T11:52:45.069Z,185.63
2022-11-23T11:53:45.068Z,168.75
2022-11-23T11:54:44.919Z,163.13
2022-11-23T11:55:44.870Z,168.75
2022-11-23T11:56:44.795Z,174.38
2022-11-23T11:57:44.897Z,185.63
2022-11-23T11:58:44.779Z,180.00
2022-11-23T11:59:44.630Z,174.38
2022-11-23T12:00:45.352Z,168.75
2022-11-23T12:01:44.486Z,168.75
2022-11-23T12:02:44.536Z,168.75
2022-11-23T12:03:44.333Z,174.38
2022-11-23T12:04:44.342Z,174.38
2022-11-23T12:05:44.194Z,180.00
2022-11-23T12:06:44.135Z,180.00
2022-11-23T12:07:44.112Z,180.00
2022-11-23T12:08:44.018Z,185.63
2022-11-23T12:09:43.963Z,185.63
2022-11-23T12:10:43.943Z,191.25
2022-11-23T12:11:43.809Z,196.88
2022-11-23T12:12:43.738Z,208.13
2022-11-23T12:13:43.709Z,196.88
2022-11-23T12:14:43.649Z,185.63
2022-11-23T12:15:50.975Z,180.00
2022-11-23T12:16:43.465Z,174.38
2022-11-23T12:17:43.409Z,168.75
2022-11-23T12:18:43.365Z,157.50
2022-11-23T12:19:43.303Z,151.88
2022-11-23T12:20:43.225Z,146.25
2022-11-23T12:21:43.308Z,146.25
2022-11-23T12:22:43.086Z,146.25
2022-11-23T12:23:43.029Z,140.63
2022-11-23T12:24:42.941Z,151.88
2022-11-23T12:25:42.883Z,157.50
2022-11-23T12:26:42.827Z,163.13
2022-11-23T12:27:48.309Z,168.75
2022-11-23T12:28:42.680Z,168.75
2022-11-23T12:29:42.624Z,163.13
2022-11-23T12:30:42.543Z,157.50
2022-11-23T12:31:42.534Z,163.13
2022-11-23T12:32:42.405Z,163.13
2022-11-23T12:33:42.356Z,163.13
2022-11-23T12:34:42.300Z,163.13
2022-11-23T12:35:42.220Z,157.50
2022-11-23T12:36:42.152Z,157.50
2022-11-23T12:37:42.094Z,157.50
2022-11-23T12:38:42.062Z,157.50
2022-11-23T12:39:41.993Z,157.50
2022-11-23T12:40:41.910Z,157.50
2022-11-23T12:41:41.861Z,151.88
2022-11-23T12:42:41.741Z,151.88
2022-11-23T12:43:41.675Z,151.88
2022-11-23T12:44:41.643Z,157.50
2022-11-23T12:45:41.626Z,157.50
2022-11-23T12:46:41.487Z,157.50
2022-11-23T12:47:41.404Z,157.50
2022-11-23T12:48:41.429Z,151.88
2022-11-23T12:49:41.273Z,140.63
2022-11-23T12:50:41.263Z,129.38
2022-11-23T12:51:41.233Z,129.38
2022-11-23T12:52:41.092Z,118.13
2022-11-23T12:53:41.135Z,112.50
2022-11-23T12:54:40.948Z,112.50
2022-11-23T12:55:40.930Z,112.50
2022-11-23T12:56:40.843Z,106.88